Terminal Aerodrome Forecast
Issued by NWS Sioux Falls, SD

Home | Current Version | Previous Version | Text Only | Print | Product List | Glossary Off
Versions: 1 2 3 4 5 6 7 8 9 10 11 12
000 FTUS43 KFSD 132320 TAFHON TAF KHON 132320Z 1400/1424 15011KT P6SM SCT050 SCT150 FM140400 16011KT P6SM BKN070 FM141800 29006KT P6SM SCT060=

USA.gov is the U.S. government's official web portal to all federal, state and local government web resources and services.